SBMN/MAO METAR and TAF weather

Enter ICAO airport designator
Station Type Date Time Source
SBMN METAR 2020/01/19 00:00 UTC NOAA

SBMN 190000Z 04005KT 9999 SCT015 FEW025TCU SCT100 25/24 Q1011


Station Type Date Time Source
SBMN Decoded METAR 2020/01/19 00:00 UTC NOAA

Manaus Aeroporto , Brazil (SBMN) 03-09S 059-59W 84M
Jan 18, 2020 - 07:00 PM EST / 2020.01.19 0000 UTC
Wind: from the NE (040 degrees) at 6 MPH (5 KT):0
Visibility: greater than 7 mile(s):0
Sky conditions: partly cloudy
Weather: Towering cumulus clouds observed
Temperature: 77 F (25 C)
Dew Point: 75 F (24 C)
Relative Humidity: 94%
Pressure (altimeter): 29.85 in. Hg (1011 hPa)
ob: SBMN 190000Z 04005KT 9999 SCT015 FEW025TCU SCT100 25/24 Q1011
cycle: 0

Station Type Date Time Source
SBMN TAF 2020/01/19 00:00 UTC NOAA

TAF SBMN 182200Z 1900/1912 03003KT 9999 FEW015 TN24/1908Z TX26/1912Z
BECMG 1905/1907 06005KT SCT008 PROB30 1910/1912 5000 RA BKN005
RMK PEH

Example: see airport list